Time;durP1;ratioP1;P1;durP2;ratioP2;P2;SDS_P1;SDS_P2;PMS_P1;PMS_P2;Temp;Humidity;BMP_temperature;BMP_pressure;BME280_temperature;BME280_humidity;BME280_pressure;Samples;Min_cycle;Max_cycle;Signal;HPM_P1;HPM_P2
2021/12/27 00:00:18;;;;;;;16.17;9.80;;;;;;;-8.26;100.00;99919.19;10422618;28;20421;-87
2021/12/27 00:05:19;;;;;;;16.80;8.90;;;;;;;-8.57;100.00;99771.03;10426612;28;20025;-87
2021/12/27 00:10:20;;;;;;;20.20;11.43;;;;;;;-8.95;100.00;99716.25;10387481;28;20397;-87
2021/12/27 00:15:20;;;;;;;16.40;10.03;;;;;;;-4.73;100.00;100301.38;10388846;28;20041;-89
2021/12/27 00:20:21;;;;;;;18.83;10.33;;;;;;;-3.92;100.00;100612.28;10387936;28;20029;-89
2021/12/27 00:25:21;;;;;;;19.73;10.67;;;;;;;-5.89;100.00;100254.78;10403695;28;20128;-89
2021/12/27 00:30:22;;;;;;;21.67;11.10;;;;;;;-5.84;100.00;100202.50;10428838;28;20334;-89
2021/12/27 00:35:26;;;;;;;19.13;9.83;;;;;;;-5.05;100.00;100329.88;10412001;28;20055;-89
2021/12/27 00:40:26;;;;;;;17.93;10.20;;;;;;;-6.34;100.00;100229.16;10429327;28;20063;-89
2021/12/27 00:45:27;;;;;;;19.03;10.17;;;;;;;-8.08;100.00;99825.63;10411437;28;20033;-89
2021/12/27 00:50:27;;;;;;;17.10;9.90;;;;;;;-9.64;100.00;99630.81;10411201;28;20132;-87
2021/12/27 00:55:28;;;;;;;18.00;10.17;;;;;;;-4.74;100.00;100453.59;10427317;28;20039;-87
2021/12/27 01:00:28;;;;;;;20.60;9.93;;;;;;;-8.86;100.00;99667.31;10426436;28;20049;-88
2021/12/27 01:05:29;;;;;;;20.07;10.73;;;;;;;-5.45;100.00;100260.91;10411360;28;20562;-89
2021/12/27 01:21:09;;;;;;;20.57;11.13;;;;;;;-4.77;100.00;100292.81;10446191;28;20449;-88
2021/12/27 01:26:09;;;;;;;17.83;11.07;;;;;;;-9.27;100.00;99712.38;10409212;28;20131;-88
2021/12/27 01:31:10;;;;;;;17.50;11.13;;;;;;;-3.97;100.00;100364.56;10387815;28;20128;-89
2021/12/27 01:36:11;;;;;;;19.63;10.80;;;;;;;-4.56;100.00;100272.66;10390746;28;20558;-89
2021/12/27 01:41:14;;;;;;;18.97;10.70;;;;;;;-6.36;100.00;100000.00;10409783;28;20115;-87
2021/12/27 01:46:17;;;;;;;22.17;11.10;;;;;;;-9.03;100.00;99719.72;10407747;28;20370;-87
2021/12/27 01:51:17;;;;;;;16.57;10.53;;;;;;;-5.96;100.00;100087.59;10424689;28;20033;-87
2021/12/27 01:56:20;;;;;;;22.50;11.43;;;;;;;-6.07;100.00;100007.53;10424434;28;20033;-87
2021/12/27 02:01:21;;;;;;;20.97;11.20;;;;;;;-4.55;100.00;100225.94;10408223;28;20099;-87
2021/12/27 02:06:22;;;;;;;19.07;11.53;;;;;;;-4.17;100.00;100304.13;10407482;28;20106;-87
2021/12/27 02:11:23;;;;;;;21.33;11.90;;;;;;;-8.02;100.00;99964.75;10399068;28;20036;-89
2021/12/27 02:16:23;;;;;;;23.30;11.43;;;;;;;-4.62;100.00;100225.81;10367304;28;20038;-90
2021/12/27 02:21:24;;;;;;;21.33;12.00;;;;;;;-4.50;100.00;100250.47;10368632;28;20034;-90
2021/12/27 02:26:25;;;;;;;18.97;11.33;;;;;;;-3.76;100.00;100317.41;10399617;28;20034;-87
2021/12/27 02:31:27;;;;;;;20.37;12.23;;;;;;;-8.00;100.00;99818.53;10365366;28;20037;-87
2021/12/27 02:36:28;;;;;;;22.30;11.33;;;;;;;-5.47;100.00;100066.09;10366376;28;20112;-88
2021/12/27 02:41:28;;;;;;;20.97;11.53;;;;;;;-4.90;100.00;100137.59;10409974;28;20057;-87
2021/12/27 02:46:29;;;;;;;21.60;11.57;;;;;;;-6.87;100.00;99844.84;10402600;28;20029;-87
2021/12/27 02:51:30;;;;;;;21.87;12.73;;;;;;;-5.03;100.00;100136.44;10416976;28;20481;-87
2021/12/27 02:56:30;;;;;;;21.07;12.97;;;;;;;-6.01;100.00;99979.25;10405635;28;20366;-87
2021/12/27 03:01:31;;;;;;;21.97;13.27;;;;;;;-7.16;100.00;99640.19;10421918;28;20041;-87
2021/12/27 03:06:31;;;;;;;20.40;11.63;;;;;;;-4.07;100.00;100230.31;10422289;28;20056;-87
2021/12/27 03:11:32;;;;;;;20.20;11.53;;;;;;;-4.96;100.00;100062.25;10410768;28;20485;-89
2021/12/27 03:16:32;;;;;;;28.10;13.13;;;;;;;-3.76;100.00;100223.25;10381884;28;20050;-89
2021/12/27 03:21:33;;;;;;;23.70;12.60;;;;;;;-3.40;100.00;100241.56;10381877;28;20083;-90
2021/12/27 03:26:33;;;;;;;25.50;14.57;;;;;;;-4.51;100.00;100192.34;10397878;28;20100;-87
2021/12/27 03:31:37;;;;;;;29.50;17.20;;;;;;;-5.39;100.00;99893.56;10379970;28;20183;-87
2021/12/27 03:36:39;;;;;;;29.30;15.60;;;;;;;-5.05;100.00;99962.16;10314332;28;20506;-86
2021/12/27 03:41:40;;;;;;;30.30;17.13;;;;;;;-3.51;100.00;100332.44;10332212;28;20046;-87
2021/12/27 03:46:40;;;;;;;26.00;15.73;;;;;;;-6.77;100.00;99620.69;10360897;28;20037;-87
2021/12/27 03:51:43;;;;;;;28.43;16.23;;;;;;;-6.23;100.00;99779.81;10371406;28;20041;-87
2021/12/27 03:56:44;;;;;;;34.20;17.10;;;;;;;-6.20;100.00;99736.59;10373170;28;20029;-89
2021/12/27 04:01:44;;;;;;;31.67;17.20;;;;;;;-5.64;100.00;99817.75;10356152;28;20490;-89
2021/12/27 04:06:45;;;;;;;29.80;16.87;;;;;;;-7.16;100.00;99701.72;10372053;28;20034;-89
2021/12/27 04:11:45;;;;;;;30.37;15.67;;;;;;;-5.37;100.00;100028.34;10356063;28;20041;-90
2021/12/27 04:16:46;;;;;;;35.07;18.70;;;;;;;-4.50;100.00;100046.28;10371704;28;20381;-89
2021/12/27 04:21:47;;;;;;;30.93;17.07;;;;;;;-5.17;100.00;99891.09;10371429;28;20041;-89
2021/12/27 04:26:47;;;;;;;31.83;18.23;;;;;;;-2.75;100.00;100262.59;10355839;28;20082;-89
2021/12/27 04:31:48;;;;;;;32.27;17.77;;;;;;;-4.17;100.00;100157.13;10371308;28;20072;-87
2021/12/27 04:36:48;;;;;;;34.13;17.77;;;;;;;-4.70;100.00;99960.78;10331296;28;20085;-87
2021/12/27 04:41:49;;;;;;;33.83;17.23;;;;;;;-5.18;100.00;99871.47;10312601;28;20637;-87
2021/12/27 04:46:49;;;;;;;30.47;17.40;;;;;;;-4.33;100.00;100101.59;10343507;28;20115;-86
2021/12/27 04:51:50;;;;;;;34.47;19.20;;;;;;;-4.33;100.00;99936.84;10361311;28;20486;-87
2021/12/27 04:56:50;;;;;;;31.13;18.53;;;;;;;-5.03;100.00;99884.16;10352461;28;20034;-86
2021/12/27 05:01:51;;;;;;;32.23;17.83;;;;;;;-8.61;100.00;99259.19;10329009;28;20066;-90
2021/12/27 05:06:51;;;;;;;33.90;17.80;;;;;;;-4.39;100.00;100036.97;10313386;28;20454;-90
2021/12/27 05:11:52;;;;;;;30.33;17.60;;;;;;;-3.75;100.00;100068.94;10343643;28;20038;-90
2021/12/27 05:16:52;;;;;;;34.27;18.97;;;;;;;-6.42;100.00;99626.56;10329077;28;20517;-90
2021/12/27 05:21:53;;;;;;;34.57;17.23;;;;;;;-7.52;100.00;99613.84;10345159;28;20390;-90
2021/12/27 05:26:53;;;;;;;32.40;18.23;;;;;;;-4.76;100.00;100087.69;10329850;28;20133;-90
2021/12/27 05:31:57;;;;;;;34.37;18.43;;;;;;;-6.52;100.00;99711.63;10346139;28;20137;-86
2021/12/27 05:36:58;;;;;;;33.03;18.53;;;;;;;-4.40;100.00;99977.03;10328589;28;20457;-90
2021/12/27 05:41:59;;;;;;;29.00;16.07;;;;;;;-5.03;100.00;99809.00;10330045;28;20088;-90
2021/12/27 05:46:59;;;;;;;38.33;19.20;;;;;;;-4.62;100.00;99970.63;10355267;28;20500;-91
2021/12/27 05:51:59;;;;;;;38.50;20.30;;;;;;;-4.23;100.00;99933.91;10352574;28;20048;-90
2021/12/27 05:57:00;;;;;;;33.73;18.40;;;;;;;-5.76;100.00;99679.75;10350974;28;20065;-86
2021/12/27 06:02:00;;;;;;;35.57;18.73;;;;;;;-3.81;100.00;99937.88;10378116;28;20107;-86
2021/12/27 06:07:01;;;;;;;32.77;17.80;;;;;;;-4.32;100.00;99891.00;10344926;28;20049;-88
2021/12/27 06:12:02;;;;;;;37.80;18.73;;;;;;;-6.68;100.00;99545.72;10333923;28;20128;-86
2021/12/27 06:17:02;;;;;;;31.40;17.03;;;;;;;-2.76;100.00;100136.97;10323756;28;20045;-84
2021/12/27 06:22:03;;;;;;;33.60;18.10;;;;;;;-6.05;100.00;99694.69;10323608;28;20072;-87
2021/12/27 06:27:04;;;;;;;32.47;18.03;;;;;;;-2.71;100.00;100129.16;10306153;28;20367;-83
2021/12/27 06:32:04;;;;;;;37.63;19.57;;;;;;;-3.57;100.00;99951.09;10306409;28;20057;-84
2021/12/27 06:37:05;;;;;;;32.53;19.30;;;;;;;-3.18;100.00;100022.66;10322236;28;20149;-84
2021/12/27 06:42:06;;;;;;;39.57;20.53;;;;;;;-3.71;100.00;100067.56;10322951;28;20144;-84
2021/12/27 06:47:06;;;;;;;32.63;17.20;;;;;;;-4.87;100.00;99830.34;10322553;28;20045;-84
2021/12/27 06:52:07;;;;;;;36.53;19.20;;;;;;;-3.33;100.00;99989.50;10307273;28;20030;-87
2021/12/27 06:57:07;;;;;;;32.90;18.73;;;;;;;-2.16;100.00;100177.34;10324704;28;20049;-87
2021/12/27 07:02:08;;;;;;;40.97;20.30;;;;;;;-3.98;100.00;99881.59;10324140;28;20045;-88
2021/12/27 07:07:08;;;;;;;34.67;18.93;;;;;;;-3.28;100.00;100032.84;10324098;28;20056;-88
2021/12/27 07:12:09;;;;;;;39.53;19.77;;;;;;;-3.08;100.00;99998.97;10313067;28;20532;-84
2021/12/27 07:17:10;;;;;;;32.77;20.63;;;;;;;-3.42;100.00;99979.84;10347036;28;20048;-84
2021/12/27 07:22:10;;;;;;;33.63;18.70;;;;;;;-3.31;100.00;100092.41;10314586;28;20046;-85
2021/12/27 07:27:11;;;;;;;34.43;18.20;;;;;;;-2.80;100.00;100038.69;10312907;28;20042;-84
2021/12/27 07:32:11;;;;;;;36.40;18.30;;;;;;;-3.31;100.00;99944.38;10329377;28;20125;-84
2021/12/27 07:37:12;;;;;;;33.53;18.93;;;;;;;-2.76;100.00;100055.31;10328322;28;20398;-85
2021/12/27 07:42:12;;;;;;;35.73;19.07;;;;;;;-2.75;100.00;100090.16;10317371;28;20065;-84
2021/12/27 07:47:13;;;;;;;37.50;20.10;;;;;;;-2.00;100.00;100182.53;10312970;28;20064;-84
2021/12/27 07:52:14;;;;;;;36.63;20.80;;;;;;;-3.64;100.00;99888.25;10313583;28;20038;-84
2021/12/27 07:57:14;;;;;;;34.80;18.97;;;;;;;-3.99;100.00;99844.13;10312746;28;20072;-84
2021/12/27 08:02:15;;;;;;;39.23;19.90;;;;;;;-2.33;100.00;100077.81;10311137;28;20034;-84
2021/12/27 08:07:15;;;;;;;36.63;20.37;;;;;;;-5.01;100.00;99651.28;10327058;28;20044;-84
2021/12/27 08:12:16;;;;;;;36.67;18.73;;;;;;;-2.07;100.00;100276.00;10311959;28;20041;-85
2021/12/27 08:17:17;;;;;;;36.50;18.50;;;;;;;-3.52;100.00;99888.63;10311825;28;20037;-84
2021/12/27 08:22:17;;;;;;;41.60;21.23;;;;;;;-4.54;100.00;99803.22;10311377;28;20041;-84
2021/12/27 08:27:18;;;;;;;36.20;19.27;;;;;;;-2.12;100.00;100103.16;10312114;28;20042;-84
2021/12/27 08:32:19;;;;;;;35.37;19.40;;;;;;;-2.67;100.00;100033.47;10328249;28;20041;-85
2021/12/27 08:37:19;;;;;;;36.50;20.30;;;;;;;-3.20;100.00;100059.69;10312278;28;20045;-88
2021/12/27 08:42:20;;;;;;;31.80;18.20;;;;;;;-2.12;100.00;100078.88;10329677;28;20068;-89
2021/12/27 08:47:20;;;;;;;40.23;20.83;;;;;;;-4.63;100.00;99675.38;10314505;28;20034;-88
2021/12/27 08:52:21;;;;;;;40.00;21.17;;;;;;;-3.55;100.00;99922.13;10313767;28;20469;-89
2021/12/27 08:57:21;;;;;;;41.93;19.90;;;;;;;-4.34;100.00;99787.38;10313889;28;20033;-89
2021/12/27 09:02:22;;;;;;;41.37;20.07;;;;;;;-2.70;100.00;99942.22;10359746;28;20148;-88
2021/12/27 09:07:23;;;;;;;43.50;20.70;;;;;;;-1.87;100.00;100077.47;10344094;28;20073;-87
2021/12/27 09:12:23;;;;;;;43.03;22.73;;;;;;;-1.99;100.00;100032.31;10327851;28;20398;-89
2021/12/27 09:17:24;;;;;;;40.23;21.87;;;;;;;-5.05;100.00;99585.56;10329157;28;20046;-91
2021/12/27 09:22:24;;;;;;;43.47;19.67;;;;;;;-2.54;100.00;99986.97;10312961;28;20108;-90
2021/12/27 09:27:24;;;;;;;39.70;21.83;;;;;;;-3.48;100.00;99793.88;10344248;28;20041;-83
2021/12/27 09:32:25;;;;;;;39.20;19.67;;;;;;;-4.97;100.00;99712.47;10325059;28;20149;-83
2021/12/27 09:37:26;;;;;;;43.33;21.90;;;;;;;-1.64;100.00;100227.56;10342029;28;20049;-83
2021/12/27 09:42:26;;;;;;;40.07;20.23;;;;;;;-1.15;100.00;100129.59;10309613;28;20141;-84
2021/12/27 09:47:27;;;;;;;42.10;20.50;;;;;;;-1.10;100.00;100156.84;10324112;28;20029;-84
2021/12/27 09:52:27;;;;;;;45.50;21.90;;;;;;;-2.10;100.00;99974.34;10308094;28;20141;-84
2021/12/27 09:57:28;;;;;;;45.50;22.87;;;;;;;-1.26;100.00;100100.41;10308282;28;20038;-84
2021/12/27 10:02:28;;;;;;;39.53;21.60;;;;;;;-0.97;100.00;100125.53;10347624;28;20069;-84
2021/12/27 10:07:29;;;;;;;47.30;24.33;;;;;;;-7.02;100.00;99156.31;10344000;28;20041;-83
2021/12/27 10:12:30;;;;;;;51.83;23.27;;;;;;;-0.86;100.00;100120.44;10332532;28;20479;-83
2021/12/27 10:17:31;;;;;;;49.27;24.77;;;;;;;-2.28;100.00;99908.19;10380037;28;20037;-83
2021/12/27 10:22:31;;;;;;;49.10;23.07;;;;;;;-5.16;100.00;99539.41;10348391;28;20708;-85
2021/12/27 10:27:34;;;;;;;41.17;23.07;;;;;;;-7.63;100.00;98942.56;10331067;28;20482;-85
2021/12/27 10:32:34;;;;;;;50.67;22.70;;;;;;;-2.35;100.00;99809.47;10323738;28;20038;-86
2021/12/27 10:37:36;;;;;;;47.03;24.47;;;;;;;-5.71;100.00;99323.47;10323213;28;20577;-85
2021/12/27 10:42:45;;;;;;;49.10;21.17;;;;;;;-4.67;100.00;99522.69;10323314;28;20038;-83
2021/12/27 10:47:53;;;;;;;47.07;21.53;;;;;;;-3.63;100.00;99645.16;10339591;28;20034;-85
2021/12/27 10:53:06;;;;;;;48.33;23.83;;;;;;;-3.73;100.00;99741.47;10323220;28;20040;-83
2021/12/27 10:58:11;;;;;;;56.57;25.07;;;;;;;-0.38;100.00;100033.09;10328372;28;20464;-83
2021/12/27 11:03:29;;;;;;;50.43;24.50;;;;;;;0.15;100.00;100068.41;10340083;28;20073;-92
2021/12/27 11:08:31;;;;;;;52.87;24.40;;;;;;;-3.66;100.00;99441.09;10358950;28;20041;-92
2021/12/27 11:13:31;;;;;;;49.13;22.40;;;;;;;-0.16;100.00;100003.22;10350183;28;20030;-91
2021/12/27 11:18:32;;;;;;;52.27;23.90;;;;;;;-0.19;100.00;100036.06;10350169;28;20041;-91
2021/12/27 11:23:32;;;;;;;48.80;23.63;;;;;;;-1.03;100.00;99968.63;10382317;28;20040;-92
2021/12/27 11:28:34;;;;;;;50.03;25.07;;;;;;;-0.47;100.00;99969.44;10351354;28;20025;-93
2021/12/27 11:34:05;;;;;;;54.70;24.30;;;;;;;-0.94;100.00;99853.09;10352315;28;20104;-91
2021/12/27 11:39:25;;;;;;;50.07;23.50;;;;;;;-0.34;100.00;99974.03;10358234;28;20441;-93
2021/12/27 11:44:53;;;;;;;70.40;25.80;;;;;;;0.04;100.00;100052.75;10398746;28;20128;-93
2021/12/27 11:50:00;;;;;;;61.83;25.57;;;;;;;-3.93;100.00;99510.81;10361006;28;20389;-83
2021/12/27 11:55:12;;;;;;;69.93;28.17;;;;;;;-2.76;100.00;99657.44;10379280;28;20042;-82
2021/12/27 12:00:15;;;;;;;71.97;28.03;;;;;;;0.03;100.00;100040.28;10370509;28;20156;-82
2021/12/27 12:05:36;;;;;;;73.83;28.17;;;;;;;0.03;100.00;100040.28;10402184;28;20037;-84
2021/12/27 12:10:38;;;;;;;79.10;28.33;;;;;;;-0.94;100.00;99903.59;10402314;28;20034;-92
2021/12/27 12:15:41;;;;;;;82.67;30.73;;;;;;;-5.45;100.00;99147.84;10343610;28;20136;-85
2021/12/27 12:20:42;;;;;;;89.27;32.23;;;;;;;-3.93;100.00;99489.28;10327336;28;20399;-85
2021/12/27 12:25:42;;;;;;;84.13;31.63;;;;;;;-0.59;100.00;99992.72;10319110;28;20042;-87
2021/12/27 12:30:50;;;;;;;82.43;31.20;;;;;;;-0.77;100.00;99958.94;10337554;28;20042;-86
2021/12/27 12:36:01;;;;;;;87.40;33.20;;;;;;;-2.96;100.00;99595.34;10371791;28;20118;-82
2021/12/27 12:41:07;;;;;;;92.17;33.07;;;;;;;-0.94;100.00;99919.81;10404626;28;20521;-81
2021/12/27 12:46:18;;;;;;;88.10;32.33;;;;;;;0.04;100.00;99987.81;10382061;28;20025;-88
2021/12/27 12:51:29;;;;;;;97.73;33.37;;;;;;;-0.71;100.00;99941.91;10387728;28;20393;-94
2021/12/27 12:56:31;;;;;;;89.53;34.87;;;;;;;-4.24;100.00;99331.09;10394868;28;20102;-93
2021/12/27 13:01:31;;;;;;;89.70;34.90;;;;;;;-3.65;100.00;99440.06;10429082;28;20036;-92
2021/12/27 13:06:43;;;;;;;81.10;32.13;;;;;;;0.07;100.00;99965.75;10404574;28;20392;-84
2021/12/27 13:11:44;;;;;;;103.67;33.07;;;;;;;-3.29;100.00;99554.75;10387826;28;20080;-83
2021/12/27 13:16:44;;;;;;;91.80;35.03;;;;;;;-4.30;100.00;99257.50;10366295;28;20075;-84
2021/12/27 13:21:45;;;;;;;100.57;38.07;;;;;;;-0.76;100.00;100052.53;10366836;28;20033;-83
2021/12/27 13:26:45;;;;;;;102.90;37.83;;;;;;;-4.66;100.00;99306.81;10422718;28;20047;-94
2021/12/27 13:31:46;;;;;;;94.87;34.03;;;;;;;-3.51;100.00;99484.03;10389978;28;20561;-83
2021/12/27 13:36:46;;;;;;;93.20;34.20;;;;;;;-3.32;100.00;99388.31;10349321;28;20088;-92
2021/12/27 13:41:54;;;;;;;105.83;37.20;;;;;;;-4.36;100.00;99317.41;10313557;28;20110;-92
2021/12/27 13:46:56;;;;;;;106.83;35.00;;;;;;;-1.83;100.00;99652.47;10329430;28;20026;-83
2021/12/27 13:52:05;;;;;;;88.00;36.13;;;;;;;-1.53;100.00;99759.22;10310647;28;20026;-93
2021/12/27 13:57:05;;;;;;;91.70;34.43;;;;;;;-0.97;100.00;99840.00;10310788;28;20478;-92
2021/12/27 14:02:06;;;;;;;94.27;33.23;;;;;;;-3.14;100.00;99730.47;10309945;28;20092;-91
2021/12/27 14:07:08;;;;;;;93.80;35.73;;;;;;;-1.32;100.00;99796.91;10309736;28;20044;-90
2021/12/27 14:12:11;;;;;;;104.90;36.80;;;;;;;-1.72;100.00;99674.47;10309011;28;20034;-82
2021/12/27 14:17:12;;;;;;;91.37;34.50;;;;;;;-0.09;100.00;99925.59;10341098;28;20433;-85
2021/12/27 14:22:21;;;;;;;107.87;35.77;;;;;;;0.02;100.00;99935.78;10346942;28;20402;-93
2021/12/27 14:27:44;;;;;;;99.13;38.57;;;;;;;0.01;100.00;99934.13;10339388;28;20037;-85
2021/12/27 14:32:48;;;;;;;111.10;39.20;;;;;;;-0.68;100.00;99838.81;10381011;28;20415;-82
2021/12/27 14:37:49;;;;;;;105.90;38.17;;;;;;;-2.18;100.00;99607.75;10363953;28;20056;-84
2021/12/27 14:42:50;;;;;;;98.37;39.80;;;;;;;-4.42;100.00;99277.88;10347568;28;20037;-84
2021/12/27 14:47:51;;;;;;;102.13;38.47;;;;;;;-2.46;100.00;99597.88;10347759;28;20363;-81
2021/12/27 14:52:52;;;;;;;98.70;36.83;;;;;;;-6.29;100.00;99012.69;10380111;28;20030;-93
2021/12/27 14:57:53;;;;;;;92.30;35.60;;;;;;;-1.55;100.00;99789.16;10324087;28;20053;-92
2021/12/27 15:02:53;;;;;;;85.67;35.73;;;;;;;-3.55;100.00;99491.66;10341612;28;20044;-93
2021/12/27 15:07:54;;;;;;;82.00;35.73;;;;;;;-6.05;100.00;99027.53;10323575;28;20437;-93
2021/12/27 15:12:54;;;;;;;91.10;34.67;;;;;;;-3.80;100.00;99396.31;10326431;28;20049;-92
2021/12/27 15:17:55;;;;;;;84.23;33.83;;;;;;;-2.45;100.00;99588.78;10315192;28;20045;-92
2021/12/27 15:22:55;;;;;;;76.33;35.17;;;;;;;-0.29;100.00;100067.06;10334286;28;20034;-91
2021/12/27 15:27:56;;;;;;;82.00;34.43;;;;;;;-0.28;100.00;99929.94;10374450;28;20068;-82
2021/12/27 15:32:57;;;;;;;74.68;34.00;;;;;;;-1.60;100.00;99791.59;10355594;28;20136;-82
2021/12/27 15:37:58;;;;;;;78.07;34.07;;;;;;;-2.33;100.00;99694.19;10340061;28;20041;-85
2021/12/27 15:43:01;;;;;;;84.20;31.47;;;;;;;-4.99;100.00;99252.03;10351943;28;20044;-89
2021/12/27 15:48:04;;;;;;;81.53;34.67;;;;;;;-3.70;100.00;99580.53;10359638;28;20030;-84
2021/12/27 15:53:05;;;;;;;72.73;31.67;;;;;;;-2.95;100.00;99617.75;10334025;28;20045;-84
2021/12/27 15:58:06;;;;;;;77.20;32.23;;;;;;;-3.42;100.00;99452.44;10336528;28;20033;-84
2021/12/27 16:03:07;;;;;;;70.27;31.67;;;;;;;-2.67;100.00;99648.19;10365188;28;20041;-84
2021/12/27 16:08:08;;;;;;;82.50;36.80;;;;;;;-1.36;100.00;99829.94;10353655;28;20037;-84
2021/12/27 16:13:08;;;;;;;80.67;33.70;;;;;;;-2.70;100.00;99731.25;10356100;28;20092;-93
2021/12/27 16:18:09;;;;;;;71.00;30.63;;;;;;;-3.35;100.00;99507.94;10342796;28;20132;-93
2021/12/27 16:23:09;;;;;;;76.50;32.60;;;;;;;-2.32;100.00;99712.81;10350300;28;20184;-84
2021/12/27 16:28:10;;;;;;;79.57;30.27;;;;;;;-2.30;100.00;99710.75;10350571;28;20038;-94
2021/12/27 16:33:12;;;;;;;73.00;33.20;;;;;;;-3.49;100.00;99507.03;10375476;28;20053;-93
2021/12/27 16:38:12;;;;;;;71.13;31.70;;;;;;;-5.78;100.00;99117.00;10334182;28;20042;-93
2021/12/27 16:43:13;;;;;;;62.53;31.77;;;;;;;-1.55;100.00;99891.72;10355230;28;20565;-84
2021/12/27 16:48:13;;;;;;;60.90;28.13;;;;;;;-2.26;100.00;99663.50;10345331;28;20092;-84
2021/12/27 16:53:14;;;;;;;63.07;30.27;;;;;;;-5.57;100.00;99239.50;10356002;28;20135;-91
2021/12/27 16:58:14;;;;;;;55.73;28.13;;;;;;;-5.13;100.00;99251.91;10339615;28;20026;-92
2021/12/27 17:03:15;;;;;;;64.03;29.50;;;;;;;-3.76;100.00;99441.47;10348647;28;20034;-92
2021/12/27 17:08:16;;;;;;;59.37;29.03;;;;;;;-3.37;100.00;99509.16;10349630;28;20069;-85
2021/12/27 17:13:16;;;;;;;59.13;29.83;;;;;;;-5.03;100.00;99164.88;10364955;28;20179;-82
2021/12/27 17:18:17;;;;;;;56.60;29.50;;;;;;;-0.53;100.00;99857.53;10353975;28;20519;-82
2021/12/27 17:23:19;;;;;;;50.67;28.20;;;;;;;-4.10;100.00;99326.66;10352220;28;20431;-92
2021/12/27 17:28:19;;;;;;;61.57;30.30;;;;;;;-0.55;100.00;99837.16;10339081;28;20030;-82
2021/12/27 17:33:21;;;;;;;51.37;26.17;;;;;;;-2.33;100.00;99560.22;10354395;28;20136;-81
2021/12/27 17:38:22;;;;;;;54.53;27.33;;;;;;;-1.45;100.00;99680.75;10350289;28;20050;-89
2021/12/27 17:43:23;;;;;;;55.77;28.67;;;;;;;-4.94;100.00;99260.31;10353273;28;20407;-85
2021/12/27 17:48:24;;;;;;;55.83;29.10;;;;;;;-2.17;100.00;99537.47;10326692;28;20036;-82
2021/12/27 17:53:24;;;;;;;48.93;26.73;;;;;;;-3.25;100.00;99537.19;10310359;28;20041;-86
2021/12/27 17:58:26;;;;;;;51.47;27.53;;;;;;;-2.55;100.00;99540.66;10310069;28;20034;-93
2021/12/27 18:03:27;;;;;;;51.37;27.37;;;;;;;-3.55;100.00;99461.25;10315105;28;20103;-83
2021/12/27 18:08:28;;;;;;;48.17;25.03;;;;;;;-2.58;100.00;99521.34;10338082;28;20046;-84
2021/12/27 18:13:28;;;;;;;43.97;23.87;;;;;;;-2.30;100.00;99646.06;10371347;28;20049;-93
2021/12/27 18:18:29;;;;;;;50.57;25.70;;;;;;;-4.58;100.00;99307.72;10310020;28;20121;-92
2021/12/27 18:23:31;;;;;;;48.77;26.63;;;;;;;-3.47;100.00;99448.47;10309185;28;20139;-84
2021/12/27 18:28:32;;;;;;;46.97;26.03;;;;;;;-1.68;100.00;99741.34;10343525;28;20037;-91
2021/12/27 18:33:33;;;;;;;48.77;25.13;;;;;;;-1.56;100.00;99741.59;10325696;28;20054;-83
2021/12/27 18:38:33;;;;;;;48.63;25.13;;;;;;;-1.18;100.00;99697.81;10342524;28;20461;-91
2021/12/27 18:43:34;;;;;;;52.77;27.73;;;;;;;-0.64;100.00;99753.56;10341666;28;20042;-82
2021/12/27 18:48:35;;;;;;;50.33;26.93;;;;;;;-3.19;100.00;99436.78;10308272;28;20129;-89
2021/12/27 18:53:36;;;;;;;47.87;26.07;;;;;;;-0.46;100.00;99765.59;10309221;28;20461;-82
2021/12/27 18:58:37;;;;;;;44.43;24.97;;;;;;;-0.50;100.00;99791.38;10307791;28;20076;-91
2021/12/27 19:03:39;;;;;;;47.57;25.97;;;;;;;-3.87;100.00;99183.88;10357110;28;20042;-89
2021/12/27 19:08:40;;;;;;;45.03;25.53;;;;;;;-0.03;100.00;99781.34;10319596;28;20033;-83
2021/12/27 19:13:41;;;;;;;47.03;25.80;;;;;;;-1.49;100.00;99626.38;10336923;28;20045;-89
2021/12/27 19:18:42;;;;;;;48.77;26.27;;;;;;;-0.78;100.00;99781.63;10323231;28;20041;-89
2021/12/27 19:23:42;;;;;;;41.60;23.57;;;;;;;-0.56;100.00;99757.06;10337440;28;20036;-84
2021/12/27 19:28:43;;;;;;;50.33;25.17;;;;;;;-1.92;100.00;99535.00;10320638;28;20030;-83
2021/12/27 19:33:43;;;;;;;42.57;24.47;;;;;;;-2.00;100.00;99529.81;10352796;28;20049;-83
2021/12/27 19:38:44;;;;;;;45.97;24.40;;;;;;;-1.00;100.00;99680.19;10353292;28;20049;-89
2021/12/27 19:43:44;;;;;;;53.73;25.97;;;;;;;-0.05;100.00;99783.44;10336935;28;20050;-84
2021/12/27 19:48:45;;;;;;;45.93;26.77;;;;;;;-5.58;100.00;98897.34;10336686;28;20509;-83
2021/12/27 19:53:45;;;;;;;47.03;24.27;;;;;;;-0.23;100.00;99733.53;10337062;28;20509;-83
2021/12/27 19:58:46;;;;;;;40.90;23.20;;;;;;;-0.44;100.00;99715.66;10321352;28;20121;-90
2021/12/27 20:03:47;;;;;;;42.23;23.03;;;;;;;-1.39;100.00;99522.53;10336139;28;20046;-83
2021/12/27 20:08:47;;;;;;;45.92;23.98;;;;;;;-2.44;100.00;99526.59;10319598;28;20028;-83
2021/12/27 20:13:48;;;;;;;48.77;25.53;;;;;;;0.33;100.00;99853.06;10351216;28;20505;-83
2021/12/27 20:18:50;;;;;;;46.37;23.30;;;;;;;-0.02;100.00;99761.38;10331272;28;20041;-89
2021/12/27 20:23:51;;;;;;;44.80;24.17;;;;;;;0.40;100.00;99943.25;10314919;28;20034;-89
2021/12/27 20:28:52;;;;;;;42.75;23.35;;;;;;;-3.86;100.00;99156.78;10328976;28;20088;-83
2021/12/27 20:33:52;;;;;;;44.67;23.37;;;;;;;-1.58;100.00;99449.47;10329247;28;20461;-83
2021/12/27 20:38:53;;;;;;;46.73;23.83;;;;;;;0.47;100.00;99769.94;10346670;28;20050;-89
2021/12/27 20:43:53;;;;;;;48.30;24.43;;;;;;;-1.12;100.00;99551.16;10313330;28;20038;-90
2021/12/27 20:48:54;;;;;;;46.53;24.30;;;;;;;-0.67;100.00;99716.13;10312324;28;20581;-87
2021/12/27 20:53:55;;;;;;;48.83;25.43;;;;;;;-1.63;100.00;99404.22;10328927;28;20041;-84
2021/12/27 20:58:56;;;;;;;47.88;25.70;;;;;;;-2.75;100.00;99222.72;10312663;28;20045;-89
2021/12/27 21:03:56;;;;;;;47.97;24.40;;;;;;;-0.65;100.00;99541.03;10328660;28;20048;-83
2021/12/27 21:08:57;;;;;;;50.03;25.73;;;;;;;0.36;100.00;99728.13;10327583;28;20034;-89
2021/12/27 21:13:57;;;;;;;51.43;26.00;;;;;;;-0.37;100.00;99623.72;10312696;28;20030;-89
2021/12/27 21:18:58;;;;;;;50.00;25.70;;;;;;;-1.31;100.00;99444.03;10325322;28;20026;-91
2021/12/27 21:23:58;;;;;;;44.13;24.23;;;;;;;0.09;100.00;99790.47;10328716;28;20074;-82
2021/12/27 21:28:59;;;;;;;46.50;23.20;;;;;;;-1.51;100.00;99396.31;10310632;28;20038;-89
2021/12/27 21:33:59;;;;;;;48.63;26.23;;;;;;;-3.75;100.00;99157.22;10311973;28;20049;-83
2021/12/27 21:38:59;;;;;;;43.60;24.13;;;;;;;-0.89;100.00;99514.72;10326521;28;20521;-83
2021/12/27 21:44:06;;;;;;;47.50;23.97;;;;;;;0.29;100.00;99702.94;10311319;28;20041;-83
2021/12/27 21:49:07;;;;;;;45.40;24.33;;;;;;;0.32;100.00;99702.53;10327116;28;20434;-83
2021/12/27 21:54:07;;;;;;;46.47;24.37;;;;;;;-0.04;100.00;99653.34;10326891;28;20038;-83
2021/12/27 21:59:09;;;;;;;46.07;22.63;;;;;;;0.61;100.00;99766.09;10325977;28;20452;-83
2021/12/27 22:04:10;;;;;;;48.13;24.17;;;;;;;-1.11;100.00;99504.22;10326200;28;20474;-83
2021/12/27 22:09:10;;;;;;;50.20;23.63;;;;;;;-1.50;100.00;99365.59;10327651;28;20030;-91
2021/12/27 22:14:11;;;;;;;46.77;23.57;;;;;;;-3.78;100.00;99083.16;10311467;28;20501;-91
2021/12/27 22:19:11;;;;;;;41.00;21.53;;;;;;;-2.77;100.00;99235.56;10311234;28;20091;-91
2021/12/27 22:24:13;;;;;;;46.93;23.20;;;;;;;-1.73;100.00;99532.53;10311488;28;20054;-90
2021/12/27 22:29:14;;;;;;;45.93;24.27;;;;;;;-2.41;100.00;99281.97;10310863;28;20038;-90
2021/12/27 22:34:14;;;;;;;43.57;22.93;;;;;;;0.13;100.00;99623.09;10326894;28;20084;-91
2021/12/27 22:39:15;;;;;;;49.00;25.13;;;;;;;0.49;100.00;99657.63;10325109;28;20054;-83